Time;durP1;ratioP1;P1;durP2;ratioP2;P2;SDS_P1;SDS_P2;PMS_P1;PMS_P2;Temp;Humidity;BMP_temperature;BMP_pressure;BME280_temperature;BME280_humidity;BME280_pressure;Samples;Min_cycle;Max_cycle;Signal;HPM_P1;HPM_P2
2021/05/25 00:01:46;;;;;;;0.38;0.30;;;;;;;;;;5043336;28;20615;-42
2021/05/25 00:04:12;;;;;;;0.40;0.40;;;;;;;;;;5052427;28;20171;-42
2021/05/25 00:06:38;;;;;;;0.98;0.50;;;;;;;;;;5038451;28;20578;-42
2021/05/25 00:09:04;;;;;;;2.67;0.60;;;;;;;;;;5053886;28;20253;-42
2021/05/25 00:11:30;;;;;;;0.77;0.50;;;;;;;;;;5053890;28;20179;-42
2021/05/25 00:13:56;;;;;;;0.80;0.40;;;;;;;;;;5055877;28;20183;-42
2021/05/25 00:16:22;;;;;;;0.60;0.30;;;;;;;;;;5039156;28;20254;-42
2021/05/25 00:18:48;;;;;;;0.60;0.47;;;;;;;;;;5049939;28;20191;-42
2021/05/25 00:21:14;;;;;;;0.85;0.57;;;;;;;;;;5040930;28;20578;-42
2021/05/25 00:23:40;;;;;;;0.52;0.50;;;;;;;;;;5052313;28;20182;-42
2021/05/25 00:26:06;;;;;;;0.47;0.40;;;;;;;;;;5041327;28;20246;-42
2021/05/25 00:28:32;;;;;;;0.57;0.43;;;;;;;;;;5041705;28;20189;-42
2021/05/25 00:30:58;;;;;;;0.40;0.40;;;;;;;;;;5048832;28;20183;-42
2021/05/25 00:33:24;;;;;;;0.40;0.40;;;;;;;;;;5038115;28;20183;-42
2021/05/25 00:35:53;;;;;;;0.40;0.40;;;;;;;;;;5052457;28;20183;-42
2021/05/25 00:38:19;;;;;;;0.52;0.47;;;;;;;;;;5040842;28;20195;-42
2021/05/25 00:40:45;;;;;;;0.40;0.40;;;;;;;;;;5056316;28;20222;-42
2021/05/25 00:43:11;;;;;;;0.50;0.38;;;;;;;;;;5045339;28;20478;-42
2021/05/25 00:45:37;;;;;;;0.40;0.40;;;;;;;;;;5045995;28;20175;-42
2021/05/25 00:48:03;;;;;;;1.33;0.30;;;;;;;;;;5057810;28;20582;-42
2021/05/25 00:50:30;;;;;;;0.57;0.45;;;;;;;;;;5057278;28;20171;-42
2021/05/25 00:52:57;;;;;;;0.40;0.40;;;;;;;;;;5042958;28;20560;-42
2021/05/25 00:55:24;;;;;;;0.90;0.38;;;;;;;;;;5042910;28;20183;-42
2021/05/25 00:57:51;;;;;;;0.47;0.35;;;;;;;;;;5056684;28;20298;-42
2021/05/25 01:00:18;;;;;;;0.88;0.38;;;;;;;;;;5056879;28;20186;-42
2021/05/25 01:02:45;;;;;;;0.47;0.43;;;;;;;;;;5056741;28;20199;-42
2021/05/25 01:05:13;;;;;;;2.25;0.52;;;;;;;;;;5053066;28;20197;-42
2021/05/25 01:07:39;;;;;;;0.77;0.60;;;;;;;;;;5057499;28;20174;-42
2021/05/25 01:10:07;;;;;;;0.77;0.50;;;;;;;;;;5056728;28;20175;-42
2021/05/25 01:12:35;;;;;;;0.47;0.47;;;;;;;;;;5056867;28;20448;-42
2021/05/25 01:15:05;;;;;;;0.45;0.45;;;;;;;;;;5052712;28;20303;-42
2021/05/25 01:17:31;;;;;;;0.52;0.30;;;;;;;;;;5055627;28;20176;-42
2021/05/25 01:19:58;;;;;;;0.50;0.50;;;;;;;;;;5037391;28;20180;-42
2021/05/25 01:22:25;;;;;;;0.95;0.50;;;;;;;;;;5052754;28;20207;-42
2021/05/25 01:24:51;;;;;;;0.52;0.50;;;;;;;;;;5041634;28;20180;-42
2021/05/25 01:27:17;;;;;;;0.47;0.40;;;;;;;;;;5046812;28;20171;-42
2021/05/25 01:29:43;;;;;;;0.60;0.40;;;;;;;;;;5056227;28;20186;-42
2021/05/25 01:32:09;;;;;;;0.50;0.50;;;;;;;;;;5056669;28;20262;-42
2021/05/25 01:34:36;;;;;;;0.30;0.30;;;;;;;;;;5049478;28;20188;-42
2021/05/25 01:37:03;;;;;;;0.55;0.43;;;;;;;;;;5056999;28;20448;-42
2021/05/25 01:39:29;;;;;;;0.50;0.47;;;;;;;;;;5056901;28;20175;-42
2021/05/25 01:41:55;;;;;;;0.50;0.38;;;;;;;;;;5056375;28;20522;-42
2021/05/25 01:44:21;;;;;;;0.93;0.40;;;;;;;;;;5046391;28;20175;-42
2021/05/25 01:46:48;;;;;;;0.40;0.40;;;;;;;;;;5046574;28;20182;-42
2021/05/25 01:49:14;;;;;;;0.50;0.50;;;;;;;;;;5036150;28;20172;-42
2021/05/25 01:51:46;;;;;;;0.50;0.50;;;;;;;;;;5040814;28;20608;-42
2021/05/25 01:54:12;;;;;;;0.45;0.43;;;;;;;;;;5056061;28;20580;-42
2021/05/25 01:56:39;;;;;;;0.63;0.45;;;;;;;;;;5052108;28;20274;-42
2021/05/25 01:59:04;;;;;;;0.30;0.30;;;;;;;;;;5037927;28;20168;-43
2021/05/25 02:01:31;;;;;;;0.30;0.30;;;;;;;;;;5035878;28;20579;-42
2021/05/25 02:03:57;;;;;;;0.40;0.40;;;;;;;;;;5036270;28;20176;-42
2021/05/25 02:06:23;;;;;;;0.40;0.40;;;;;;;;;;5036999;28;20190;-42
2021/05/25 02:08:49;;;;;;;0.35;0.32;;;;;;;;;;5056199;28;20167;-42
2021/05/25 02:11:15;;;;;;;0.50;0.50;;;;;;;;;;5055334;28;20200;-42
2021/05/25 02:13:41;;;;;;;0.88;0.50;;;;;;;;;;5041251;28;20484;-42
2021/05/25 02:16:09;;;;;;;0.30;0.30;;;;;;;;;;5036454;28;20206;-42
2021/05/25 02:18:43;;;;;;;0.25;0.25;;;;;;;;;;5037445;28;20187;-42
2021/05/25 02:21:09;;;;;;;0.30;0.30;;;;;;;;;;5035663;28;20194;-43
2021/05/25 02:23:35;;;;;;;0.43;0.40;;;;;;;;;;5038392;28;20286;-42
2021/05/25 02:26:02;;;;;;;0.30;0.30;;;;;;;;;;5040958;28;20600;-42
2021/05/25 02:28:28;;;;;;;1.15;0.43;;;;;;;;;;5038539;28;20195;-42
2021/05/25 02:30:54;;;;;;;0.35;0.35;;;;;;;;;;5035470;28;20182;-42
2021/05/25 02:33:22;;;;;;;0.30;0.30;;;;;;;;;;5045946;28;20180;-42
2021/05/25 02:35:49;;;;;;;0.30;0.30;;;;;;;;;;5043158;28;20262;-42
2021/05/25 02:38:15;;;;;;;0.40;0.40;;;;;;;;;;5035870;28;20453;-42
2021/05/25 02:40:46;;;;;;;0.63;0.45;;;;;;;;;;5035173;28;20183;-42
2021/05/25 02:43:13;;;;;;;0.63;0.40;;;;;;;;;;5045900;28;20285;-42
2021/05/25 02:45:39;;;;;;;0.30;0.30;;;;;;;;;;5052542;28;20511;-42
2021/05/25 02:48:05;;;;;;;0.30;0.30;;;;;;;;;;5035596;28;20250;-42
2021/05/25 02:50:31;;;;;;;0.40;0.40;;;;;;;;;;5034908;28;20170;-42
2021/05/25 02:52:57;;;;;;;0.57;0.30;;;;;;;;;;5044959;28;20183;-42
2021/05/25 02:55:24;;;;;;;0.40;0.40;;;;;;;;;;5053717;28;20184;-42
2021/05/25 02:57:51;;;;;;;0.75;0.30;;;;;;;;;;5035872;28;20187;-42
2021/05/25 03:00:21;;;;;;;0.28;0.28;;;;;;;;;;5035716;28;20435;-42
2021/05/25 03:02:47;;;;;;;0.43;0.40;;;;;;;;;;5048176;28;20281;-42
2021/05/25 03:05:14;;;;;;;0.28;0.22;;;;;;;;;;5035536;28;20203;-42
2021/05/25 03:07:41;;;;;;;0.32;0.22;;;;;;;;;;5040437;28;20179;-42
2021/05/25 03:10:08;;;;;;;0.47;0.40;;;;;;;;;;5035339;28;20470;-42
2021/05/25 03:12:35;;;;;;;1.20;0.40;;;;;;;;;;5038932;28;20258;-42
2021/05/25 03:15:01;;;;;;;0.30;0.30;;;;;;;;;;5055212;28;20194;-42
2021/05/25 03:17:27;;;;;;;0.40;0.40;;;;;;;;;;5042380;28;20215;-42
2021/05/25 03:19:53;;;;;;;0.47;0.32;;;;;;;;;;5034893;28;20208;-42
2021/05/25 03:22:19;;;;;;;0.52;0.50;;;;;;;;;;5036406;28;20200;-42
2021/05/25 03:24:45;;;;;;;0.30;0.30;;;;;;;;;;5055020;28;20519;-42
2021/05/25 03:27:11;;;;;;;0.35;0.30;;;;;;;;;;5053877;28;20203;-42
2021/05/25 03:29:37;;;;;;;0.60;0.43;;;;;;;;;;5041011;28;20207;-42
2021/05/25 03:32:03;;;;;;;0.25;0.25;;;;;;;;;;5034433;28;20184;-42
2021/05/25 03:34:29;;;;;;;0.30;0.30;;;;;;;;;;5053597;28;20183;-42
2021/05/25 03:36:55;;;;;;;0.40;0.35;;;;;;;;;;5053847;28;20555;-42
2021/05/25 03:39:22;;;;;;;0.40;0.32;;;;;;;;;;5041405;28;20262;-42
2021/05/25 03:41:48;;;;;;;0.55;0.50;;;;;;;;;;5050070;28;20194;-42
2021/05/25 03:44:14;;;;;;;0.32;0.22;;;;;;;;;;5050073;28;20222;-42
2021/05/25 03:46:41;;;;;;;0.50;0.30;;;;;;;;;;5041476;28;20558;-42
2021/05/25 03:49:07;;;;;;;0.50;0.40;;;;;;;;;;5040857;28;20543;-42
2021/05/25 03:51:33;;;;;;;0.20;0.20;;;;;;;;;;5049383;28;20277;-42
2021/05/25 03:54:01;;;;;;;0.28;0.28;;;;;;;;;;5042007;28;20575;-42
2021/05/25 03:56:34;;;;;;;0.30;0.30;;;;;;;;;;5046278;28;20197;-42
2021/05/25 03:59:00;;;;;;;0.30;0.30;;;;;;;;;;5054560;28;20174;-42
2021/05/25 04:01:27;;;;;;;0.30;0.30;;;;;;;;;;5053397;28;20191;-42
2021/05/25 04:03:54;;;;;;;0.20;0.20;;;;;;;;;;5045240;28;20179;-42
2021/05/25 04:06:21;;;;;;;0.40;0.40;;;;;;;;;;5044516;28;20425;-42
2021/05/25 04:08:47;;;;;;;0.47;0.40;;;;;;;;;;5035715;28;20186;-42
2021/05/25 04:11:14;;;;;;;0.30;0.30;;;;;;;;;;5038844;28;20438;-42
2021/05/25 04:13:40;;;;;;;0.40;0.30;;;;;;;;;;5047486;28;20187;-42
2021/05/25 04:16:11;;;;;;;8.52;2.20;;;;;;;;;;5041950;28;20188;-42
2021/05/25 04:18:37;;;;;;;16.17;4.70;;;;;;;;;;5035460;28;20180;-42
2021/05/25 04:21:04;;;;;;;16.92;4.38;;;;;;;;;;5037507;28;20189;-43
2021/05/25 04:23:30;;;;;;;15.07;3.70;;;;;;;;;;5041147;28;20513;-42
2021/05/25 04:25:56;;;;;;;11.88;3.50;;;;;;;;;;5044325;28;20187;-42
2021/05/25 04:28:22;;;;;;;16.27;3.80;;;;;;;;;;5034475;28;20184;-42
2021/05/25 04:30:48;;;;;;;13.95;4.53;;;;;;;;;;5034423;28;20246;-42
2021/05/25 04:33:14;;;;;;;14.98;4.22;;;;;;;;;;5053346;28;20187;-42
2021/05/25 04:35:40;;;;;;;19.65;4.95;;;;;;;;;;5053802;28;20180;-42
2021/05/25 04:38:07;;;;;;;20.27;5.07;;;;;;;;;;5054352;28;20171;-42
2021/05/25 04:40:34;;;;;;;22.50;5.60;;;;;;;;;;5053743;28;20205;-42
2021/05/25 04:43:00;;;;;;;23.70;6.72;;;;;;;;;;5044130;28;20199;-42
2021/05/25 04:45:26;;;;;;;25.50;7.18;;;;;;;;;;5052776;28;20256;-42
2021/05/25 04:47:53;;;;;;;24.25;6.57;;;;;;;;;;5049297;28;20176;-42
2021/05/25 04:50:19;;;;;;;29.58;7.53;;;;;;;;;;5040005;28;20298;-43
2021/05/25 04:52:46;;;;;;;20.98;6.32;;;;;;;;;;5041239;28;20199;-42
2021/05/25 04:55:14;;;;;;;29.42;7.85;;;;;;;;;;5036008;28;20180;-42
2021/05/25 04:57:40;;;;;;;22.95;7.50;;;;;;;;;;5053645;28;20178;-42
2021/05/25 05:00:09;;;;;;;22.35;7.28;;;;;;;;;;5045089;28;20219;-42
2021/05/25 05:02:35;;;;;;;22.42;7.18;;;;;;;;;;5047923;28;20524;-42
2021/05/25 05:05:01;;;;;;;28.85;7.20;;;;;;;;;;5037679;28;20563;-42
2021/05/25 05:07:28;;;;;;;17.55;6.68;;;;;;;;;;5037472;28;20171;-42
2021/05/25 05:09:54;;;;;;;21.42;6.70;;;;;;;;;;5038693;28;20180;-42
2021/05/25 05:12:20;;;;;;;18.20;5.82;;;;;;;;;;5047104;28;20480;-42
2021/05/25 05:14:45;;;;;;;28.27;8.00;;;;;;;;;;5057320;28;20181;-42
2021/05/25 05:17:11;;;;;;;20.48;6.60;;;;;;;;;;5043955;28;20521;-42
2021/05/25 05:19:37;;;;;;;26.08;8.02;;;;;;;;;;5038657;28;20229;-42
2021/05/25 05:22:04;;;;;;;26.10;7.43;;;;;;;;;;5036859;28;20191;-42
2021/05/25 05:24:30;;;;;;;25.75;7.63;;;;;;;;;;5037359;28;20238;-42
2021/05/25 05:26:56;;;;;;;24.23;8.85;;;;;;;;;;5037231;28;20250;-42
2021/05/25 05:29:22;;;;;;;25.20;8.88;;;;;;;;;;5038229;28;20262;-42
2021/05/25 05:31:48;;;;;;;29.27;8.48;;;;;;;;;;5056722;28;20183;-42
2021/05/25 05:34:14;;;;;;;26.20;7.72;;;;;;;;;;5048689;28;20172;-42
2021/05/25 05:36:40;;;;;;;22.92;7.40;;;;;;;;;;5036203;28;20180;-42
2021/05/25 05:39:06;;;;;;;24.33;7.60;;;;;;;;;;5036840;28;20172;-42
2021/05/25 05:41:33;;;;;;;20.92;7.30;;;;;;;;;;5036305;28;20215;-42
2021/05/25 05:43:59;;;;;;;22.38;7.18;;;;;;;;;;5036782;28;20180;-42
2021/05/25 05:46:25;;;;;;;19.70;6.97;;;;;;;;;;5036694;28;20176;-42
2021/05/25 05:48:51;;;;;;;21.83;7.22;;;;;;;;;;5051948;28;20182;-42
2021/05/25 05:51:18;;;;;;;17.92;6.60;;;;;;;;;;5055735;28;20207;-42
2021/05/25 05:53:44;;;;;;;17.88;6.97;;;;;;;;;;5056671;28;20178;-42
2021/05/25 05:56:10;;;;;;;23.83;6.88;;;;;;;;;;5056054;28;20182;-42
2021/05/25 05:58:36;;;;;;;19.67;6.60;;;;;;;;;;5052164;28;20180;-42
2021/05/25 06:01:03;;;;;;;17.25;6.43;;;;;;;;;;5045869;28;20426;-42
2021/05/25 06:03:29;;;;;;;19.15;6.65;;;;;;;;;;5053715;28;20183;-42
2021/05/25 06:05:55;;;;;;;17.70;6.20;;;;;;;;;;5047000;28;20244;-42
2021/05/25 06:08:22;;;;;;;17.95;6.28;;;;;;;;;;5055361;28;20455;-42
2021/05/25 06:10:51;;;;;;;15.43;5.75;;;;;;;;;;5053184;28;20182;-42
2021/05/25 06:13:22;;;;;;;14.57;5.38;;;;;;;;;;5055885;28;20172;-42
2021/05/25 06:15:50;;;;;;;14.70;5.75;;;;;;;;;;5051111;28;20225;-42
2021/05/25 06:18:16;;;;;;;14.30;6.05;;;;;;;;;;5036283;28;20168;-42
2021/05/25 06:20:42;;;;;;;11.20;5.13;;;;;;;;;;5034902;28;20199;-42
2021/05/25 06:23:08;;;;;;;10.77;5.00;;;;;;;;;;5035271;28;20199;-42
2021/05/25 06:25:34;;;;;;;14.20;4.90;;;;;;;;;;5035884;28;20432;-42
2021/05/25 06:28:00;;;;;;;14.73;4.57;;;;;;;;;;5040601;28;20260;-42
2021/05/25 06:30:28;;;;;;;13.02;4.85;;;;;;;;;;5055775;28;20171;-42
2021/05/25 15:47:19;;;;;;;1.38;0.10;;;;;;;;;;5095327;28;20279;-43
2021/05/25 15:49:45;;;;;;;0.45;0.20;;;;;;;;;;5088404;28;20620;-43
2021/05/25 15:52:11;;;;;;;0.30;0.30;;;;;;;;;;5081647;28;20820;-43
2021/05/25 15:54:37;;;;;;;0.30;0.30;;;;;;;;;;5091479;28;20186;-43
2021/05/25 15:57:03;;;;;;;0.10;0.10;;;;;;;;;;5094155;28;20469;-43
2021/05/25 15:59:30;;;;;;;0.10;0.10;;;;;;;;;;5094004;28;20608;-43
2021/05/25 16:01:56;;;;;;;0.20;0.20;;;;;;;;;;5089339;28;20221;-43
2021/05/25 16:04:22;;;;;;;0.20;0.20;;;;;;;;;;5094165;28;20212;-43
2021/05/25 16:06:47;;;;;;;0.22;0.20;;;;;;;;;;5090782;28;20202;-43
2021/05/25 16:09:14;;;;;;;0.40;0.20;;;;;;;;;;5081276;28;20174;-43
2021/05/25 16:11:40;;;;;;;0.20;0.20;;;;;;;;;;5086746;28;20176;-43
2021/05/25 16:14:08;;;;;;;1.50;0.20;;;;;;;;;;5083021;28;20204;-43
2021/05/25 16:16:36;;;;;;;0.38;0.10;;;;;;;;;;5093931;28;20165;-43
2021/05/25 16:19:02;;;;;;;0.13;0.10;;;;;;;;;;5091914;28;20256;-42
2021/05/25 16:21:28;;;;;;;0.10;0.10;;;;;;;;;;5086367;28;20173;-42
2021/05/25 16:23:54;;;;;;;0.65;0.20;;;;;;;;;;5086061;28;20178;-42
2021/05/25 16:26:21;;;;;;;0.10;0.10;;;;;;;;;;5091476;28;20620;-42
2021/05/25 16:28:47;;;;;;;0.20;0.20;;;;;;;;;;5093782;28;20200;-42
2021/05/25 16:31:13;;;;;;;0.40;0.10;;;;;;;;;;5080928;28;20212;-42
2021/05/25 16:33:39;;;;;;;0.20;0.20;;;;;;;;;;5093246;28;20178;-42
2021/05/25 16:36:06;;;;;;;0.70;0.30;;;;;;;;;;5093883;28;20747;-43
2021/05/25 16:38:32;;;;;;;0.35;0.20;;;;;;;;;;5062466;28;20182;-43
2021/05/25 16:40:58;;;;;;;0.20;0.20;;;;;;;;;;5093456;28;20212;-43
2021/05/25 16:43:24;;;;;;;0.30;0.22;;;;;;;;;;5088269;28;20200;-43
2021/05/25 16:45:50;;;;;;;0.82;0.30;;;;;;;;;;5090277;28;20248;-43
2021/05/25 16:48:16;;;;;;;0.20;0.17;;;;;;;;;;5091456;28;20166;-43
2021/05/25 16:50:42;;;;;;;0.30;0.20;;;;;;;;;;5092479;28;20200;-47
2021/05/25 16:53:08;;;;;;;0.10;0.10;;;;;;;;;;5088654;28;20587;-43
2021/05/25 16:55:34;;;;;;;0.30;0.25;;;;;;;;;;5092816;28;20460;-43
2021/05/25 16:58:00;;;;;;;0.20;0.20;;;;;;;;;;5086307;28;20173;-43
2021/05/25 17:06:04;;;;;;;0.28;0.20;;;;;;;;;;5097438;28;20296;-42
2021/05/25 17:08:56;;;;;;;0.45;0.30;;;;;;;;;;5096569;28;20170;-42
2021/05/25 17:19:08;;;;;;;0.75;0.25;;;;;;;;;;5094677;28;20272;-43
2021/05/25 17:21:34;;;;;;;0.40;0.20;;;;;;;;;;5090363;28;20185;-43
2021/05/25 17:24:03;;;;;;;0.22;0.20;;;;;;;;;;5091807;28;20231;-43
2021/05/25 17:29:25;;;;;;;1.02;0.45;;;;;;;;;;5076906;28;20672;-43
2021/05/25 17:31:51;;;;;;;0.10;0.10;;;;;;;;;;5078519;28;20209;-43
2021/05/25 17:34:17;;;;;;;0.55;0.32;;;;;;;;;;5084028;28;20182;-42
2021/05/25 17:36:43;;;;;;;0.20;0.20;;;;;;;;;;5096178;28;20260;-42
2021/05/25 17:39:11;;;;;;;0.20;0.20;;;;;;;;;;5093567;28;20635;-42
2021/05/25 17:41:37;;;;;;;0.50;0.30;;;;;;;;;;5087941;28;20189;-42
2021/05/25 17:44:04;;;;;;;0.30;0.30;;;;;;;;;;5091936;28;20184;-42
2021/05/25 17:46:30;;;;;;;0.20;0.20;;;;;;;;;;5090679;28;20221;-42
2021/05/25 17:48:56;;;;;;;0.20;0.20;;;;;;;;;;5101007;28;20208;-42
2021/05/25 17:51:25;;;;;;;0.50;0.30;;;;;;;;;;5088433;28;20178;-42
2021/05/25 17:53:51;;;;;;;0.20;0.20;;;;;;;;;;5090250;28;20186;-42
2021/05/25 17:56:17;;;;;;;1.35;0.20;;;;;;;;;;5084150;28;20188;-42
2021/05/25 17:58:43;;;;;;;0.35;0.20;;;;;;;;;;5087214;28;20599;-42
2021/05/25 18:01:13;;;;;;;0.20;0.20;;;;;;;;;;5080490;28;20289;-42
2021/05/25 18:03:38;;;;;;;0.68;0.50;;;;;;;;;;5086463;28;20205;-43
2021/05/25 18:06:08;;;;;;;1.50;0.28;;;;;;;;;;5093721;28;20231;-43
2021/05/25 18:08:34;;;;;;;1.52;0.30;;;;;;;;;;5093477;28;20197;-43
2021/05/25 18:11:00;;;;;;;1.60;0.20;;;;;;;;;;5075566;28;20243;-43
2021/05/25 18:13:30;;;;;;;0.75;0.40;;;;;;;;;;5088226;28;20182;-43
2021/05/25 18:15:56;;;;;;;0.28;0.20;;;;;;;;;;5082673;28;20255;-42
2021/05/25 18:18:22;;;;;;;3.40;0.40;;;;;;;;;;5082552;28;20297;-43
2021/05/25 18:20:50;;;;;;;0.70;0.45;;;;;;;;;;5092010;28;20201;-42
2021/05/25 18:23:16;;;;;;;0.63;0.35;;;;;;;;;;5080406;28;20194;-43
2021/05/25 18:25:42;;;;;;;1.02;0.38;;;;;;;;;;5086142;28;20310;-43
2021/05/25 18:28:08;;;;;;;0.45;0.30;;;;;;;;;;5086432;28;20212;-42
2021/05/25 18:31:05;;;;;;;0.22;0.22;;;;;;;;;;5090012;28;20528;-43
2021/05/25 18:33:28;;;;;;;1.02;0.50;;;;;;;;;;5088844;28;20262;-43
2021/05/25 18:43:38;;;;;;;3.53;0.30;;;;;;;;;;5090881;28;20245;-42
2021/05/25 18:46:04;;;;;;;0.70;0.35;;;;;;;;;;5084543;28;20173;-43
2021/05/25 18:48:30;;;;;;;0.70;0.32;;;;;;;;;;5103269;28;20169;-43
2021/05/25 18:50:56;;;;;;;0.43;0.32;;;;;;;;;;5104442;28;20197;-43
2021/05/25 18:53:22;;;;;;;0.55;0.47;;;;;;;;;;5093267;28;20441;-43
2021/05/25 18:55:49;;;;;;;0.30;0.30;;;;;;;;;;5094311;28;20464;-43
2021/05/25 19:01:00;;;;;;;0.30;0.30;;;;;;;;;;5094413;28;20519;-42
2021/05/25 19:03:26;;;;;;;1.33;0.40;;;;;;;;;;5095250;28;20193;-42
2021/05/25 19:05:52;;;;;;;0.30;0.30;;;;;;;;;;5082253;28;20280;-43
2021/05/25 19:08:21;;;;;;;0.95;0.30;;;;;;;;;;5095942;28;20253;-43
2021/05/25 19:10:47;;;;;;;2.15;1.23;;;;;;;;;;5095206;28;20492;-43
2021/05/25 19:13:13;;;;;;;4.35;1.50;;;;;;;;;;5090698;28;20213;-43
2021/05/25 19:15:39;;;;;;;4.68;1.90;;;;;;;;;;5090220;28;20182;-43
2021/05/25 19:18:05;;;;;;;10.65;2.53;;;;;;;;;;5085934;28;20185;-43
2021/05/25 19:23:23;;;;;;;9.10;2.53;;;;;;;;;;5079452;28;20255;-43
2021/05/25 19:25:57;;;;;;;6.00;2.40;;;;;;;;;;5090496;28;20182;-43
2021/05/25 19:28:25;;;;;;;4.18;2.10;;;;;;;;;;5095135;28;20764;-42
2021/05/25 19:30:52;;;;;;;6.72;2.38;;;;;;;;;;5094183;28;20674;-42
2021/05/25 19:33:18;;;;;;;5.05;1.88;;;;;;;;;;5094843;28;20181;-42
2021/05/25 19:35:44;;;;;;;6.68;2.47;;;;;;;;;;5094662;28;20553;-42
2021/05/25 19:38:10;;;;;;;5.97;2.17;;;;;;;;;;5095351;28;20205;-43
2021/05/25 19:40:36;;;;;;;4.78;1.80;;;;;;;;;;5094098;28;20553;-43
2021/05/25 19:43:03;;;;;;;5.65;1.85;;;;;;;;;;5094743;28;20201;-42
2021/05/25 19:45:29;;;;;;;4.50;1.95;;;;;;;;;;5094330;28;20178;-43
2021/05/25 19:47:55;;;;;;;4.63;1.98;;;;;;;;;;5096931;28;20242;-42
2021/05/25 19:50:21;;;;;;;3.33;1.80;;;;;;;;;;5115281;28;20417;-42
2021/05/25 19:52:49;;;;;;;6.00;1.90;;;;;;;;;;5114942;28;20169;-42
2021/05/25 19:55:16;;;;;;;4.68;1.70;;;;;;;;;;5095055;28;20182;-42
2021/05/25 19:57:43;;;;;;;5.57;1.77;;;;;;;;;;5094937;28;20480;-42
2021/05/25 20:00:09;;;;;;;5.72;1.70;;;;;;;;;;5094557;28;20185;-42
2021/05/25 20:02:36;;;;;;;9.82;2.08;;;;;;;;;;5093684;28;20588;-42
2021/05/25 20:05:02;;;;;;;5.18;1.80;;;;;;;;;;5094476;28;20177;-42
2021/05/25 20:07:28;;;;;;;3.38;1.23;;;;;;;;;;5094032;28;20208;-43
2021/05/25 20:09:55;;;;;;;4.18;1.48;;;;;;;;;;5094751;28;20273;-42
2021/05/25 20:12:22;;;;;;;5.90;1.70;;;;;;;;;;5094132;28;20189;-42
2021/05/25 20:14:48;;;;;;;2.55;1.50;;;;;;;;;;5093695;28;20193;-42
2021/05/25 20:17:14;;;;;;;3.20;1.63;;;;;;;;;;5093997;28;20243;-42
2021/05/25 20:19:40;;;;;;;4.28;1.67;;;;;;;;;;5094438;28;20397;-42
2021/05/25 20:22:06;;;;;;;3.28;1.63;;;;;;;;;;5093467;28;20284;-42
2021/05/25 20:24:35;;;;;;;3.78;1.67;;;;;;;;;;5094860;28;20564;-42
2021/05/25 20:27:02;;;;;;;3.45;1.63;;;;;;;;;;5093241;28;20188;-42
2021/05/25 20:29:28;;;;;;;2.03;1.20;;;;;;;;;;5083526;28;20171;-42
2021/05/25 20:31:54;;;;;;;3.58;1.48;;;;;;;;;;5087217;28;20170;-42
2021/05/25 20:39:31;;;;;;;1.73;1.08;;;;;;;;;;5077809;28;20217;-42
2021/05/25 20:41:57;;;;;;;1.83;1.50;;;;;;;;;;5091727;28;20181;-42
2021/05/25 20:44:23;;;;;;;3.35;1.63;;;;;;;;;;5098404;28;20439;-42
2021/05/25 20:46:49;;;;;;;6.22;1.42;;;;;;;;;;5093142;28;20192;-42
2021/05/25 20:49:16;;;;;;;3.58;1.08;;;;;;;;;;5096671;28;20284;-42
2021/05/25 20:51:42;;;;;;;3.47;1.50;;;;;;;;;;5087356;28;20216;-42
2021/05/25 20:54:08;;;;;;;2.63;1.38;;;;;;;;;;5093561;28;20178;-42
2021/05/25 20:56:34;;;;;;;1.52;1.05;;;;;;;;;;5089394;28;20182;-42
2021/05/25 20:59:00;;;;;;;1.75;1.35;;;;;;;;;;5077941;28;20182;-42
2021/05/25 21:01:26;;;;;;;1.50;1.13;;;;;;;;;;5096431;28;20506;-42
2021/05/25 21:03:53;;;;;;;1.88;1.15;;;;;;;;;;5091783;28;20198;-42
2021/05/25 21:06:19;;;;;;;2.50;1.17;;;;;;;;;;5091848;28;20185;-42
2021/05/25 21:08:45;;;;;;;2.85;1.13;;;;;;;;;;5097506;28;20181;-42
2021/05/25 21:11:11;;;;;;;3.45;1.17;;;;;;;;;;5089622;28;20174;-43
2021/05/25 21:13:37;;;;;;;1.63;1.30;;;;;;;;;;5077752;28;20189;-43
2021/05/25 21:16:03;;;;;;;1.60;1.05;;;;;;;;;;5092896;28;20436;-42
2021/05/25 21:18:29;;;;;;;1.35;1.10;;;;;;;;;;5091959;28;20189;-42
2021/05/25 21:20:55;;;;;;;1.83;0.95;;;;;;;;;;5084150;28;20193;-42
2021/05/25 21:23:21;;;;;;;1.83;1.05;;;;;;;;;;5095308;28;20263;-42
2021/05/25 21:25:48;;;;;;;1.83;0.90;;;;;;;;;;5086708;28;20249;-42
2021/05/25 21:28:14;;;;;;;1.88;1.02;;;;;;;;;;5077232;28;20542;-42
2021/05/25 21:30:41;;;;;;;1.70;1.20;;;;;;;;;;5091855;28;20177;-43
2021/05/25 21:33:07;;;;;;;4.18;1.30;;;;;;;;;;5085379;28;20174;-43
2021/05/25 21:35:34;;;;;;;1.42;0.98;;;;;;;;;;5077051;28;20179;-43
2021/05/25 21:37:59;;;;;;;0.80;0.77;;;;;;;;;;5078533;28;20265;-43
2021/05/25 21:40:27;;;;;;;1.63;0.95;;;;;;;;;;5086037;28;20265;-43
2021/05/25 21:42:53;;;;;;;2.13;1.10;;;;;;;;;;5076150;28;20628;-42
2021/05/25 21:45:19;;;;;;;1.65;1.00;;;;;;;;;;5087746;28;20184;-42
2021/05/25 21:47:45;;;;;;;1.20;0.98;;;;;;;;;;5094825;28;20185;-42
2021/05/25 21:50:16;;;;;;;1.65;1.00;;;;;;;;;;5094951;28;20187;-42
2021/05/25 21:52:42;;;;;;;0.95;0.70;;;;;;;;;;5079709;28;20181;-42
2021/05/25 21:55:08;;;;;;;2.05;0.85;;;;;;;;;;5084003;28;20225;-42
2021/05/25 21:57:34;;;;;;;2.38;1.25;;;;;;;;;;5077830;28;20167;-42
2021/05/25 22:00:01;;;;;;;1.02;0.90;;;;;;;;;;5083974;28;20189;-42
2021/05/25 22:02:27;;;;;;;1.00;0.90;;;;;;;;;;5094103;28;20193;-42
2021/05/25 22:04:53;;;;;;;1.08;0.80;;;;;;;;;;5096485;28;20525;-42
2021/05/25 22:07:19;;;;;;;1.38;0.90;;;;;;;;;;5096583;28;20177;-43
2021/05/25 22:09:45;;;;;;;1.45;1.05;;;;;;;;;;5090867;28;20216;-42
2021/05/25 22:12:11;;;;;;;1.65;0.70;;;;;;;;;;5095458;28;20190;-42
2021/05/25 22:14:37;;;;;;;1.55;0.82;;;;;;;;;;5094192;28;20185;-42
2021/05/25 22:17:03;;;;;;;2.22;1.17;;;;;;;;;;5096205;28;20215;-42
2021/05/25 22:19:29;;;;;;;1.33;0.93;;;;;;;;;;5096260;28;20169;-42
2021/05/25 22:21:55;;;;;;;1.05;0.60;;;;;;;;;;5095143;28;20208;-42
2021/05/25 22:24:21;;;;;;;1.42;0.93;;;;;;;;;;5088809;28;20557;-42
2021/05/25 22:26:47;;;;;;;1.50;0.93;;;;;;;;;;5076091;28;20175;-42
2021/05/25 22:29:13;;;;;;;1.95;0.93;;;;;;;;;;5089568;28;20618;-42
2021/05/25 22:31:39;;;;;;;1.00;0.73;;;;;;;;;;5084597;28;20202;-42
2021/05/25 22:34:05;;;;;;;2.38;1.10;;;;;;;;;;5096097;28;20166;-42
2021/05/25 22:36:31;;;;;;;1.30;0.82;;;;;;;;;;5088109;28;20182;-42
2021/05/25 22:38:57;;;;;;;1.55;0.85;;;;;;;;;;5092120;28;20181;-42
2021/05/25 22:41:23;;;;;;;1.45;0.75;;;;;;;;;;5094329;28;20230;-42
2021/05/25 22:43:49;;;;;;;2.28;0.85;;;;;;;;;;5093577;28;20209;-42
2021/05/25 22:46:15;;;;;;;1.73;0.68;;;;;;;;;;5095491;28;20170;-42
2021/05/25 22:48:41;;;;;;;1.30;0.88;;;;;;;;;;5103671;28;20181;-42
2021/05/25 22:51:07;;;;;;;1.45;0.80;;;;;;;;;;5078963;28;20674;-42
2021/05/25 22:53:33;;;;;;;1.17;0.80;;;;;;;;;;5075684;28;20171;-42
2021/05/25 22:55:59;;;;;;;0.85;0.75;;;;;;;;;;5076346;28;20832;-42
2021/05/25 22:58:25;;;;;;;1.27;0.85;;;;;;;;;;5085303;28;20178;-42
2021/05/25 23:00:51;;;;;;;1.13;0.75;;;;;;;;;;5086926;28;20589;-42
2021/05/25 23:03:17;;;;;;;0.75;0.60;;;;;;;;;;5094451;28;20216;-42
2021/05/25 23:05:43;;;;;;;1.55;0.80;;;;;;;;;;5084054;28;20192;-42
2021/05/25 23:08:09;;;;;;;0.63;0.60;;;;;;;;;;5095473;28;20616;-42
2021/05/25 23:10:37;;;;;;;1.92;0.85;;;;;;;;;;5095008;28;20257;-42
2021/05/25 23:13:03;;;;;;;0.73;0.68;;;;;;;;;;5082796;28;20178;-42
2021/05/25 23:15:29;;;;;;;1.88;0.93;;;;;;;;;;5089135;28;20185;-42
2021/05/25 23:17:55;;;;;;;2.08;0.85;;;;;;;;;;5095160;28;20178;-42
2021/05/25 23:20:21;;;;;;;1.40;0.70;;;;;;;;;;5084010;28;20180;-42
2021/05/25 23:22:47;;;;;;;0.60;0.60;;;;;;;;;;5083837;28;20509;-42
2021/05/25 23:25:13;;;;;;;0.93;0.55;;;;;;;;;;5091363;28;20185;-42
2021/05/25 23:27:39;;;;;;;0.85;0.60;;;;;;;;;;5095195;28;20423;-42
2021/05/25 23:30:06;;;;;;;1.98;0.70;;;;;;;;;;5095399;28;20166;-42
2021/05/25 23:32:35;;;;;;;0.82;0.60;;;;;;;;;;5093967;28;20549;-42
2021/05/25 23:35:03;;;;;;;2.20;0.70;;;;;;;;;;5075245;28;20182;-42
2021/05/25 23:37:29;;;;;;;0.60;0.60;;;;;;;;;;5085636;28;20182;-42
2021/05/25 23:39:55;;;;;;;1.13;0.63;;;;;;;;;;5075215;28;20177;-42
2021/05/25 23:42:21;;;;;;;1.17;0.60;;;;;;;;;;5087317;28;20259;-42
2021/05/25 23:44:47;;;;;;;0.63;0.57;;;;;;;;;;5094795;28;20699;-42
2021/05/25 23:47:13;;;;;;;0.70;0.70;;;;;;;;;;5083689;28;20178;-43
2021/05/25 23:49:39;;;;;;;1.23;0.63;;;;;;;;;;5105995;28;20197;-43
2021/05/25 23:52:06;;;;;;;0.98;0.60;;;;;;;;;;5076560;28;20171;-42
2021/05/25 23:54:32;;;;;;;0.63;0.63;;;;;;;;;;5094962;28;20182;-42
2021/05/25 23:56:57;;;;;;;0.60;0.60;;;;;;;;;;5085142;28;20232;-42
2021/05/25 23:59:23;;;;;;;0.57;0.47;;;;;;;;;;5074542;28;20174;-43
